Time;durP1;ratioP1;P1;durP2;ratioP2;P2;SDS_P1;SDS_P2;PMS_P1;PMS_P2;Temp;Humidity;BMP_temperature;BMP_pressure;BME280_temperature;BME280_humidity;BME280_pressure;Samples;Min_cycle;Max_cycle;Signal;HPM_P1;HPM_P2
2024/04/10 00:00:52;;;;;;;1.20;0.83;;;9.70;99.90;9.60;100928.00;;;;5178016;26;80324;-64
2024/04/10 00:03:18;;;;;;;1.20;0.97;;;9.60;99.90;9.60;100931.00;;;;5177167;26;81025;-65
2024/04/10 00:05:59;;;;;;;2.30;0.77;;;9.60;99.90;9.50;100947.00;;;;5180434;26;107192;-65
2024/04/10 00:08:26;;;;;;;1.10;0.90;;;9.60;99.90;9.60;100959.00;;;;5180006;26;79732;-64
2024/04/10 00:10:52;;;;;;;1.33;0.90;;;9.70;99.90;9.60;100962.00;;;;5180356;26;81796;-64
2024/04/10 00:13:18;;;;;;;1.17;0.70;;;9.60;99.90;9.50;100970.00;;;;5175240;27;93360;-66
2024/04/10 00:15:43;;;;;;;0.73;0.73;;;9.60;99.90;9.50;100967.00;;;;5180830;26;106400;-66
2024/04/10 00:18:09;;;;;;;1.37;1.03;;;9.60;99.90;9.50;100965.00;;;;5180873;26;100553;-65
2024/04/10 00:20:36;;;;;;;0.73;0.73;;;9.60;99.90;9.50;100966.00;;;;5178640;26;109630;-66
2024/04/10 00:23:05;;;;;;;1.37;0.83;;;9.60;99.90;9.50;100968.00;;;;5179018;26;80812;-65
2024/04/10 00:25:34;;;;;;;2.20;0.67;;;9.60;99.90;9.50;100968.00;;;;5176495;26;106710;-65
2024/04/10 00:28:00;;;;;;;1.10;1.03;;;9.60;99.90;9.50;100942.00;;;;5176522;26;79131;-64
2024/04/10 00:30:26;;;;;;;1.77;0.80;;;9.60;99.90;9.50;100946.00;;;;5177371;26;108484;-65
2024/04/10 00:32:52;;;;;;;4.00;1.20;;;10.00;99.90;9.50;100968.00;;;;5182262;26;80807;-65
2024/04/10 00:35:18;;;;;;;0.40;0.40;;;9.60;99.90;9.50;100957.00;;;;5175079;26;99629;-66
2024/04/10 00:37:43;;;;;;;4.77;1.00;;;9.60;99.90;9.50;100960.00;;;;5177291;26;105453;-65
2024/04/10 00:40:09;;;;;;;2.70;1.03;;;9.60;99.90;9.50;100967.00;;;;5178138;26;110004;-65
2024/04/10 00:42:35;;;;;;;1.23;1.13;;;9.60;99.90;9.50;100970.00;;;;5179426;26;101449;-66
2024/04/10 00:45:01;;;;;;;1.57;0.67;;;9.50;99.90;9.50;100975.00;;;;5181286;27;107411;-66
2024/04/10 00:47:27;;;;;;;0.57;0.50;;;9.60;99.90;9.50;100969.00;;;;5181155;26;106666;-66
2024/04/10 00:49:53;;;;;;;1.33;1.00;;;9.60;99.90;9.60;100978.00;;;;5176686;26;109517;-65
2024/04/10 00:52:19;;;;;;;1.53;0.93;;;9.60;99.90;9.50;100984.00;;;;5178748;26;109333;-64
2024/04/10 00:54:46;;;;;;;0.70;0.70;;;9.20;99.90;9.50;100985.00;;;;5178612;26;79973;-64
2024/04/10 00:57:11;;;;;;;1.43;0.93;;;9.60;99.90;9.50;100974.00;;;;5178227;26;106288;-65
2024/04/10 00:59:38;;;;;;;4.30;0.90;;;9.60;99.90;9.50;100980.00;;;;5174576;26;110241;-66
2024/04/10 01:02:05;;;;;;;1.20;0.83;;;9.60;99.90;9.50;100983.00;;;;5179754;26;95001;-65
2024/04/10 01:04:31;;;;;;;2.10;1.20;;;9.50;99.90;9.50;100993.00;;;;5182683;27;105888;-65
2024/04/10 01:06:56;;;;;;;2.00;0.90;;;9.60;99.90;9.50;100993.00;;;;5180012;26;105856;-66
2024/04/10 01:09:22;;;;;;;0.70;0.70;;;9.50;99.90;9.50;101010.00;;;;5179568;26;110029;-66
2024/04/10 01:11:48;;;;;;;6.70;1.00;;;9.50;99.90;9.40;101013.00;;;;5180104;27;108777;-66
2024/04/10 01:14:14;;;;;;;1.00;0.70;;;9.50;99.90;9.40;101004.00;;;;5175490;27;106862;-65
2024/04/10 01:16:39;;;;;;;2.50;0.93;;;9.50;99.90;9.40;100998.00;;;;5179654;26;105713;-65
2024/04/10 01:19:06;;;;;;;2.40;1.20;;;9.50;99.90;9.40;100993.00;;;;5175059;26;109532;-65
2024/04/10 01:21:32;;;;;;;1.00;0.90;;;9.40;99.90;9.40;101006.00;;;;5175949;26;80871;-64
2024/04/10 01:23:57;;;;;;;0.70;0.60;;;9.40;99.90;9.40;101009.00;;;;5175434;27;106898;-64
2024/04/10 01:26:23;;;;;;;1.77;0.80;;;9.40;99.90;9.40;101017.00;;;;5177262;26;105080;-63
2024/04/10 01:28:49;;;;;;;0.97;0.80;;;9.40;99.90;9.40;101008.00;;;;5181372;26;80462;-64
2024/04/10 01:31:14;;;;;;;1.47;0.80;;;9.40;99.90;9.40;101012.00;;;;5178852;26;110071;-66
2024/04/10 01:33:40;;;;;;;2.80;1.50;;;9.60;99.90;9.40;101023.00;;;;5174115;26;107739;-64
2024/04/10 01:36:07;;;;;;;1.07;1.03;;;9.40;99.90;9.40;101018.00;;;;5177546;26;79443;-64
2024/04/10 01:38:33;;;;;;;2.87;0.83;;;9.50;99.90;9.40;101031.00;;;;5177960;26;98415;-64
2024/04/10 01:40:59;;;;;;;2.43;0.70;;;9.50;99.90;9.40;101033.00;;;;5176711;26;79326;-64
2024/04/10 01:43:25;;;;;;;1.23;1.13;;;9.40;99.90;9.40;101025.00;;;;5175515;27;101995;-64
2024/04/10 01:45:51;;;;;;;2.40;1.10;;;9.50;99.90;9.40;101028.00;;;;5176992;27;79540;-66
2024/04/10 01:48:17;;;;;;;1.00;0.93;;;9.40;99.90;9.40;101037.00;;;;5175995;27;87135;-65
2024/04/10 01:50:43;;;;;;;1.80;0.67;;;9.50;99.90;9.30;101041.00;;;;5179852;26;110388;-65
2024/04/10 01:53:08;;;;;;;5.30;1.10;;;9.40;99.90;9.30;101066.00;;;;5179417;27;79338;-65
2024/04/10 01:55:34;;;;;;;1.20;0.80;;;9.40;99.90;9.30;101064.00;;;;5177463;27;106458;-64
2024/04/10 01:58:00;;;;;;;0.57;0.57;;;9.40;99.90;9.30;101053.00;;;;5179794;26;108623;-64
2024/04/10 02:00:26;;;;;;;3.87;0.83;;;9.40;99.90;9.30;101051.00;;;;5179082;26;108101;-65
2024/04/10 02:02:52;;;;;;;0.70;0.50;;;9.40;99.90;9.30;101046.00;;;;5181089;26;79751;-64
2024/04/10 02:05:17;;;;;;;5.37;0.70;;;9.40;99.90;9.30;101040.00;;;;5180429;27;78744;-65
2024/04/10 02:07:43;;;;;;;6.20;1.63;;;9.30;99.90;9.30;101027.00;;;;5177844;27;110656;-65
2024/04/10 02:10:09;;;;;;;1.63;0.93;;;9.30;99.90;9.30;101042.00;;;;5180748;26;79836;-65
2024/04/10 02:12:34;;;;;;;2.00;1.10;;;9.30;99.90;9.30;101032.00;;;;5179850;26;93102;-64
2024/04/10 02:15:00;;;;;;;2.13;1.33;;;9.30;99.90;9.30;101035.00;;;;5176488;27;104825;-64
2024/04/10 02:17:26;;;;;;;0.60;0.53;;;9.40;99.90;9.30;101033.00;;;;5179720;26;99282;-65
2024/04/10 02:19:51;;;;;;;1.90;1.20;;;9.40;99.90;9.30;101025.00;;;;5178276;27;109275;-65
2024/04/10 02:22:17;;;;;;;0.50;0.50;;;9.40;99.90;9.30;101024.00;;;;5178499;27;106876;-65
2024/04/10 02:24:44;;;;;;;1.57;1.47;;;9.30;99.90;9.30;101011.00;;;;5179223;26;104920;-64
2024/04/10 02:27:09;;;;;;;2.77;1.20;;;9.40;99.90;9.40;101015.00;;;;5181582;27;81311;-65
2024/04/10 02:29:35;;;;;;;2.57;0.97;;;9.40;99.90;9.40;101020.00;;;;5174482;27;109358;-64
2024/04/10 02:32:00;;;;;;;1.30;1.10;;;9.40;99.90;9.40;101031.00;;;;5172779;26;107368;-64
2024/04/10 02:34:26;;;;;;;2.53;0.63;;;9.50;99.90;9.40;101028.00;;;;5172644;27;108104;-65
2024/04/10 02:36:52;;;;;;;1.03;0.70;;;9.50;99.90;9.40;101036.00;;;;5178679;26;110708;-65
2024/04/10 02:39:17;;;;;;;2.77;0.97;;;9.40;99.90;9.30;101052.00;;;;5177284;26;113513;-66
2024/04/10 02:41:44;;;;;;;1.30;0.83;;;9.40;99.90;9.30;101060.00;;;;5178680;26;106342;-65
2024/04/10 02:44:09;;;;;;;6.67;1.30;;;9.40;99.90;9.20;101082.00;;;;5178820;26;79339;-66
2024/04/10 02:46:35;;;;;;;1.67;1.10;;;9.30;99.90;9.20;101076.00;;;;5181774;26;109281;-65
2024/04/10 02:49:01;;;;;;;5.73;0.87;;;9.30;99.90;9.20;101075.00;;;;5179479;26;110009;-65
2024/04/10 02:51:27;;;;;;;1.70;1.37;;;9.30;99.90;9.20;101083.00;;;;5177737;26;80546;-64
2024/04/10 02:53:52;;;;;;;1.20;0.80;;;9.30;99.90;9.10;101084.00;;;;5179765;26;90073;-65
2024/04/10 02:56:20;;;;;;;0.40;0.40;;;9.20;99.90;9.10;101082.00;;;;5179669;26;81062;-65
2024/04/10 02:58:46;;;;;;;1.23;0.60;;;9.20;99.90;9.10;101089.00;;;;5180859;26;80568;-65
2024/04/10 03:01:12;;;;;;;2.20;1.27;;;9.20;99.90;9.10;101083.00;;;;5178089;26;80682;-64
2024/04/10 03:03:38;;;;;;;2.73;0.97;;;9.20;99.90;9.10;101089.00;;;;5179449;26;106983;-65
2024/04/10 03:06:07;;;;;;;3.20;1.00;;;9.20;99.90;9.10;101090.00;;;;5175752;26;109742;-66
2024/04/10 03:08:35;;;;;;;1.33;1.00;;;8.70;99.90;9.10;101089.00;;;;5179105;26;79737;-64
2024/04/10 03:11:02;;;;;;;0.70;0.70;;;9.20;99.90;9.10;101092.00;;;;5178713;26;99760;-66
2024/04/10 03:13:32;;;;;;;1.50;1.00;;;9.20;99.90;9.00;101090.00;;;;5180137;26;79476;-65
2024/04/10 03:15:58;;;;;;;0.63;0.63;;;9.10;99.90;9.00;101103.00;;;;5181346;26;96046;-65
2024/04/10 03:18:23;;;;;;;0.80;0.80;;;9.10;99.90;9.10;101106.00;;;;5176224;26;112412;-66
2024/04/10 03:20:49;;;;;;;1.53;1.10;;;9.10;99.90;9.10;101107.00;;;;5178626;26;106884;-64
2024/04/10 03:23:15;;;;;;;1.00;0.90;;;9.10;99.90;9.00;101111.00;;;;5177427;26;106326;-65
2024/04/10 03:25:40;;;;;;;3.30;1.23;;;9.10;99.90;9.00;101108.00;;;;5177993;26;107681;-64
2024/04/10 03:28:06;;;;;;;1.03;0.97;;;9.10;99.90;9.00;101119.00;;;;5178932;26;109770;-64
2024/04/10 03:30:35;;;;;;;1.43;1.27;;;9.10;99.90;9.00;101123.00;;;;5180586;26;107308;-64
2024/04/10 03:33:01;;;;;;;1.73;1.13;;;9.10;99.90;9.00;101135.00;;;;5183166;26;81472;-65
2024/04/10 03:35:27;;;;;;;3.60;1.73;;;9.10;99.90;9.00;101129.00;;;;5178316;26;111424;-65
2024/04/10 03:37:52;;;;;;;0.70;0.70;;;9.10;99.90;9.00;101145.00;;;;5178310;27;108799;-65
2024/04/10 03:40:18;;;;;;;1.30;1.20;;;9.10;99.90;9.00;101156.00;;;;5177362;26;107810;-66
2024/04/10 03:42:44;;;;;;;0.70;0.70;;;9.10;99.90;9.00;101168.00;;;;5179028;26;105978;-65
2024/04/10 03:45:12;;;;;;;1.47;1.13;;;9.10;99.90;9.00;101171.00;;;;5178382;26;109967;-64
2024/04/10 03:47:38;;;;;;;3.17;1.10;;;9.10;99.90;8.90;101166.00;;;;5179822;26;80426;-65
2024/04/10 03:50:06;;;;;;;1.43;1.30;;;9.00;99.90;8.90;101176.00;;;;5175206;26;97547;-66
2024/04/10 03:52:32;;;;;;;1.57;1.47;;;9.00;99.90;8.90;101173.00;;;;5183830;26;80165;-65
2024/04/10 03:54:57;;;;;;;1.27;1.17;;;9.00;99.90;8.90;101186.00;;;;5179628;26;111081;-65
2024/04/10 03:57:23;;;;;;;1.87;1.40;;;9.00;99.90;8.90;101188.00;;;;5179866;26;109679;-64
2024/04/10 03:59:49;;;;;;;2.33;1.57;;;9.00;99.90;8.90;101186.00;;;;5174708;26;108997;-65
2024/04/10 04:02:14;;;;;;;3.17;1.63;;;9.00;99.90;8.90;101185.00;;;;5179171;26;106800;-64
2024/04/10 04:04:40;;;;;;;1.63;1.17;;;9.00;99.90;8.90;101192.00;;;;5182411;26;109541;-65
2024/04/10 04:07:06;;;;;;;2.77;1.30;;;9.00;99.90;9.00;101187.00;;;;5182801;26;109130;-65
2024/04/10 04:09:31;;;;;;;2.20;1.63;;;9.10;99.90;9.10;101188.00;;;;5183908;26;106037;-65
2024/04/10 04:11:57;;;;;;;1.30;1.10;;;9.10;99.90;9.10;101184.00;;;;5180611;26;97012;-65
2024/04/10 04:14:23;;;;;;;2.97;1.63;;;9.10;99.90;9.10;101184.00;;;;5179530;26;107717;-65
2024/04/10 04:16:49;;;;;;;1.70;1.33;;;9.20;99.90;9.10;101193.00;;;;5158007;26;110142;-66
2024/04/10 04:19:15;;;;;;;1.47;1.13;;;9.10;99.90;9.10;101201.00;;;;5175569;26;79671;-65
2024/04/10 04:21:41;;;;;;;1.33;1.23;;;9.20;99.90;9.10;101202.00;;;;5176990;26;106633;-66
2024/04/10 04:24:06;;;;;;;2.50;1.50;;;9.20;99.90;9.10;101209.00;;;;5178902;26;109496;-65
2024/04/10 04:26:32;;;;;;;1.80;1.63;;;9.10;99.90;9.10;101216.00;;;;5179299;26;80907;-65
2024/04/10 04:28:58;;;;;;;1.20;1.10;;;9.10;99.90;9.00;101207.00;;;;5181550;26;106020;-65
2024/04/10 04:31:23;;;;;;;2.27;1.60;;;9.10;99.90;9.00;101209.00;;;;5177717;26;107466;-64
2024/04/10 04:33:49;;;;;;;2.57;1.47;;;9.20;99.90;9.00;101211.00;;;;5178513;26;108533;-64
2024/04/10 04:36:15;;;;;;;1.20;1.20;;;9.10;99.90;9.00;101215.00;;;;5174548;26;80664;-65
2024/04/10 04:38:41;;;;;;;1.40;1.07;;;9.10;99.90;9.00;101209.00;;;;5178620;26;105714;-65
2024/04/10 04:41:06;;;;;;;1.40;1.30;;;9.10;99.90;9.00;101218.00;;;;5180398;26;95844;-64
2024/04/10 04:43:32;;;;;;;1.90;1.30;;;9.10;99.90;9.00;101211.00;;;;5179819;27;103461;-65
2024/04/10 04:45:59;;;;;;;4.73;1.10;;;9.10;99.90;9.00;101221.00;;;;5180801;26;79529;-64
2024/04/10 04:48:25;;;;;;;2.13;1.53;;;9.00;99.90;9.00;101219.00;;;;5179983;26;79432;-64
2024/04/10 04:50:51;;;;;;;2.20;1.37;;;9.10;99.90;9.00;101225.00;;;;5182850;26;102699;-63
2024/04/10 04:53:17;;;;;;;1.43;1.30;;;9.10;99.90;9.00;101227.00;;;;5178998;26;81224;-65
2024/04/10 04:55:44;;;;;;;1.67;1.30;;;9.10;99.90;9.00;101237.00;;;;5178655;26;108407;-64
2024/04/10 04:58:12;;;;;;;1.53;0.93;;;9.10;99.90;9.00;101224.00;;;;5177830;26;79623;-63
2024/04/10 05:00:39;;;;;;;9.20;1.67;;;9.10;99.90;9.00;101235.00;;;;5177911;26;79434;-63
2024/04/10 05:03:06;;;;;;;2.57;1.30;;;9.10;99.90;9.00;101241.00;;;;5181105;26;81229;-63
2024/04/10 05:05:33;;;;;;;4.23;1.10;;;9.10;99.90;9.00;101247.00;;;;5179284;26;81486;-65
2024/04/10 05:07:59;;;;;;;3.13;1.50;;;9.10;99.90;9.10;101248.00;;;;5176264;27;79652;-64
2024/04/10 05:10:25;;;;;;;0.80;0.80;;;9.10;99.90;9.10;101246.00;;;;5176459;26;106949;-64
2024/04/10 05:12:50;;;;;;;2.93;1.10;;;9.20;99.90;9.10;101248.00;;;;5181068;26;109209;-64
2024/04/10 05:15:16;;;;;;;1.83;1.27;;;9.30;99.90;9.10;101254.00;;;;5179284;26;110976;-64
2024/04/10 05:17:44;;;;;;;3.17;1.77;;;9.10;99.90;9.10;101251.00;;;;5180225;27;108965;-64
2024/04/10 05:20:12;;;;;;;2.73;1.67;;;9.20;99.90;9.20;101254.00;;;;5179386;26;78415;-65
2024/04/10 05:22:42;;;;;;;1.50;1.10;;;9.20;99.90;9.20;101252.00;;;;5177060;26;79694;-66
2024/04/10 05:25:10;;;;;;;2.03;1.43;;;9.20;99.90;9.20;101256.00;;;;5179476;27;80101;-65
2024/04/10 05:27:37;;;;;;;2.37;1.40;;;9.30;99.90;9.20;101264.00;;;;5180474;27;80555;-63
2024/04/10 05:30:09;;;;;;;6.03;2.50;;;9.30;99.90;9.20;101265.00;;;;5181650;27;79565;-64
2024/04/10 05:32:39;;;;;;;4.70;1.60;;;9.30;99.90;9.30;101265.00;;;;5181996;26;79885;-64
2024/04/10 05:35:11;;;;;;;2.63;1.80;;;9.40;99.90;9.30;101257.00;;;;5179505;26;88692;-63
2024/04/10 05:37:37;;;;;;;2.00;1.10;;;9.40;99.90;9.40;101267.00;;;;5181542;26;79760;-64
2024/04/10 05:40:09;;;;;;;2.80;2.00;;;9.40;99.90;9.40;101269.00;;;;5177110;26;106199;-64
2024/04/10 05:42:36;;;;;;;1.70;1.53;;;9.40;99.90;9.40;101271.00;;;;5180943;26;79760;-63
2024/04/10 05:45:03;;;;;;;8.43;2.30;;;9.40;99.90;9.50;101283.00;;;;5181800;26;83187;-64
2024/04/10 05:47:30;;;;;;;2.63;1.77;;;9.50;99.90;9.50;101293.00;;;;5176809;27;83369;-64
2024/04/10 05:49:56;;;;;;;3.33;2.10;;;9.60;99.90;9.50;101296.00;;;;5180894;26;79627;-64
2024/04/10 05:52:22;;;;;;;2.70;1.67;;;9.30;99.90;9.50;101309.00;;;;5177386;27;111104;-63
2024/04/10 05:54:53;;;;;;;2.73;2.03;;;9.60;99.90;9.50;101294.00;;;;5180371;26;110876;-62
2024/04/10 05:57:19;;;;;;;1.87;1.77;;;9.60;99.90;9.50;101302.00;;;;5176866;27;79490;-63
2024/04/10 05:59:45;;;;;;;3.90;1.80;;;9.60;99.90;9.60;101303.00;;;;5177765;27;99705;-63
2024/04/10 06:02:10;;;;;;;1.77;1.40;;;9.70;99.90;9.60;101308.00;;;;5177733;26;98597;-63
2024/04/10 06:04:36;;;;;;;2.90;2.40;;;9.70;99.90;9.60;101312.00;;;;5179405;26;109997;-63
2024/04/10 06:07:02;;;;;;;6.50;1.67;;;9.70;99.90;9.70;101315.00;;;;5178627;27;108652;-62
2024/04/10 06:09:28;;;;;;;3.20;1.97;;;9.70;99.90;9.70;101324.00;;;;5182129;27;78844;-62
2024/04/10 06:11:54;;;;;;;2.57;1.47;;;9.80;99.90;9.70;101318.00;;;;5179856;26;97075;-63
2024/04/10 06:14:20;;;;;;;2.80;1.33;;;9.80;99.90;9.70;101329.00;;;;5175643;26;108711;-62
2024/04/10 06:16:46;;;;;;;4.17;1.20;;;9.80;99.90;9.80;101338.00;;;;5180906;26;80286;-63
2024/04/10 06:19:12;;;;;;;3.40;2.37;;;9.80;99.90;9.80;101340.00;;;;5179793;27;94103;-63
2024/04/10 06:21:38;;;;;;;2.27;1.60;;;9.90;99.90;9.90;101345.00;;;;5182268;26;80479;-63
2024/04/10 06:24:05;;;;;;;4.50;2.10;;;10.00;99.90;9.90;101339.00;;;;5182325;26;79491;-64
2024/04/10 06:26:31;;;;;;;2.43;1.50;;;10.00;99.90;10.00;101343.00;;;;5183195;26;80750;-62
2024/04/10 06:28:56;;;;;;;2.97;1.30;;;10.00;99.90;10.00;101351.00;;;;5183431;26;107218;-63
2024/04/10 06:31:22;;;;;;;4.03;1.63;;;10.10;99.90;10.10;101355.00;;;;5177289;26;114032;-63
2024/04/10 06:33:48;;;;;;;2.60;1.83;;;10.10;99.90;10.10;101360.00;;;;5179863;26;83834;-62
2024/04/10 06:36:14;;;;;;;1.60;1.20;;;10.20;99.90;10.20;101364.00;;;;5178546;26;107601;-62
2024/04/10 06:38:39;;;;;;;3.40;1.80;;;10.20;99.90;10.20;101375.00;;;;5178592;26;106343;-64
2024/04/10 06:41:06;;;;;;;1.53;1.40;;;10.30;99.90;10.20;101374.00;;;;5178107;26;114941;-63
2024/04/10 06:43:33;;;;;;;2.70;1.00;;;10.30;99.90;10.30;101376.00;;;;5177016;26;86607;-64
2024/04/10 06:46:04;;;;;;;2.10;1.90;;;10.40;99.90;10.40;101377.00;;;;5176910;27;84256;-64
2024/04/10 06:48:30;;;;;;;1.70;1.57;;;10.40;99.90;10.50;101387.00;;;;5179524;26;84443;-64
2024/04/10 06:51:05;;;;;;;4.97;1.43;;;10.50;99.90;10.50;101391.00;;;;5174184;26;113914;-64
2024/04/10 06:53:31;;;;;;;1.83;1.27;;;10.50;99.90;10.60;101393.00;;;;5181016;27;85184;-63
2024/04/10 06:56:02;;;;;;;2.00;1.70;;;10.60;99.90;10.70;101400.00;;;;5177232;26;84362;-63
2024/04/10 06:58:29;;;;;;;4.77;1.87;;;10.70;99.90;10.70;101390.00;;;;5178243;26;94153;-64
2024/04/10 07:01:04;;;;;;;1.97;1.33;;;10.80;99.90;10.80;101396.00;;;;5178411;26;85913;-63
2024/04/10 07:03:36;;;;;;;1.90;1.63;;;10.80;99.90;10.80;101403.00;;;;5176065;27;85222;-65
2024/04/10 07:06:05;;;;;;;3.23;1.77;;;10.90;99.90;10.90;101396.00;;;;5177446;26;85259;-65
2024/04/10 07:08:31;;;;;;;2.77;1.67;;;10.90;99.90;11.00;101388.00;;;;5177144;26;84569;-65
2024/04/10 07:10:57;;;;;;;5.67;1.37;;;11.00;99.90;11.00;101394.00;;;;5174103;26;104216;-65
2024/04/10 07:13:24;;;;;;;4.40;1.90;;;11.10;99.90;11.10;101394.00;;;;5174375;26;85432;-64
2024/04/10 07:16:00;;;;;;;2.33;1.53;;;11.10;99.90;11.10;101401.00;;;;5177720;26;84530;-64
2024/04/10 07:18:33;;;;;;;3.90;1.37;;;11.20;99.90;11.20;101393.00;;;;5176848;26;93848;-65
2024/04/10 07:21:03;;;;;;;1.63;1.37;;;11.20;99.90;11.30;101403.00;;;;5175080;26;86097;-64
2024/04/10 07:23:31;;;;;;;5.90;2.07;;;11.30;99.90;11.30;101408.00;;;;5177063;26;83960;-63
2024/04/10 07:26:12;;;;;;;2.53;1.13;;;11.30;99.90;11.40;101415.00;;;;5174205;26;84532;-65
2024/04/10 07:28:41;;;;;;;1.77;1.27;;;11.40;99.90;11.40;101419.00;;;;5176678;26;84883;-63
2024/04/10 07:31:09;;;;;;;1.77;1.13;;;11.40;99.90;11.50;101424.00;;;;5179279;26;100340;-63
2024/04/10 07:33:34;;;;;;;2.60;1.30;;;11.50;99.90;11.50;101416.00;;;;5181019;26;86789;-63
2024/04/10 07:36:14;;;;;;;4.50;1.23;;;11.50;99.90;11.60;101433.00;;;;5173164;26;108060;-61
2024/04/10 07:38:41;;;;;;;2.20;1.33;;;11.60;99.90;11.60;101421.00;;;;5177134;27;85218;-62
2024/04/10 07:41:08;;;;;;;1.43;1.13;;;11.70;99.90;11.60;101436.00;;;;5175311;26;84492;-62
2024/04/10 07:43:34;;;;;;;1.13;1.03;;;11.70;99.90;11.70;101433.00;;;;5177394;26;84545;-62
2024/04/10 07:46:11;;;;;;;1.57;1.27;;;11.80;99.90;11.80;101443.00;;;;5178532;26;84523;-62
2024/04/10 07:48:38;;;;;;;2.93;1.13;;;11.80;99.90;11.90;101444.00;;;;5177517;26;84149;-62
2024/04/10 07:51:09;;;;;;;3.63;1.10;;;11.90;99.90;12.00;101435.00;;;;5176771;26;85340;-62
2024/04/10 07:53:37;;;;;;;3.97;1.63;;;12.00;99.90;12.10;101451.00;;;;5177382;26;84311;-63
2024/04/10 07:56:05;;;;;;;2.50;0.97;;;12.10;99.90;12.20;101461.00;;;;5175297;26;85698;-62
2024/04/10 07:58:31;;;;;;;2.40;1.10;;;12.20;99.90;12.40;101450.00;;;;5176505;26;84613;-63
2024/04/10 08:00:58;;;;;;;1.53;1.17;;;12.40;99.90;12.60;101462.00;;;;5181038;26;85466;-62
2024/04/10 08:03:25;;;;;;;6.57;0.90;;;12.50;99.90;12.80;101465.00;;;;5179830;26;84585;-61
2024/04/10 08:06:03;;;;;;;8.33;1.40;;;12.70;99.90;13.00;101467.00;;;;5176297;26;84156;-62
2024/04/10 08:08:29;;;;;;;1.70;0.70;;;12.90;99.90;13.30;101474.00;;;;5175180;26;84491;-63
2024/04/10 08:11:04;;;;;;;4.00;1.03;;;13.20;99.90;13.70;101479.00;;;;5175909;26;101335;-63
2024/04/10 08:13:31;;;;;;;0.90;0.87;;;13.50;99.90;14.00;101486.00;;;;5178156;26;90707;-62
2024/04/10 08:16:05;;;;;;;3.50;1.27;;;13.90;99.90;14.20;101480.00;;;;5179333;26;84251;-64
2024/04/10 08:18:38;;;;;;;3.37;1.10;;;14.20;99.90;14.60;101483.00;;;;5176159;27;84641;-63
2024/04/10 08:21:13;;;;;;;1.98;1.30;;;14.50;99.90;14.90;101492.00;;;;5175294;26;86598;-61
2024/04/10 08:23:40;;;;;;;3.20;1.33;;;14.80;99.90;15.00;101501.00;;;;5173615;26;86155;-62
2024/04/10 08:26:14;;;;;;;1.33;1.05;;;15.00;99.90;15.10;101504.00;;;;5178862;26;96122;-64
2024/04/10 08:28:48;;;;;;;4.65;1.50;;;15.10;99.90;15.10;101508.00;;;;5177595;26;84787;-64
2024/04/10 08:31:15;;;;;;;1.38;0.70;;;15.10;99.90;15.20;101515.00;;;;5178580;26;84902;-63
2024/04/10 08:33:45;;;;;;;1.02;0.98;;;15.20;99.90;15.20;101524.00;;;;5177843;26;85241;-63
2024/04/10 08:36:13;;;;;;;1.20;0.88;;;15.20;99.90;15.30;101528.00;;;;5179240;26;86181;-63
2024/04/10 08:38:40;;;;;;;2.72;0.75;;;15.30;99.90;15.30;101531.00;;;;5177258;27;83588;-64
2024/04/10 08:41:21;;;;;;;4.30;1.02;;;15.30;99.90;15.40;101522.00;;;;5178722;26;84849;-64
2024/04/10 08:43:49;;;;;;;0.95;0.80;;;15.40;99.90;15.40;101532.00;;;;5177856;26;96863;-64
2024/04/10 08:46:17;;;;;;;2.95;0.90;;;15.40;99.90;15.40;101534.00;;;;5176280;26;101538;-64
2024/04/10 08:48:45;;;;;;;5.95;0.98;;;15.40;99.90;15.40;101538.00;;;;5176864;26;94020;-63
2024/04/10 08:51:18;;;;;;;2.05;1.13;;;15.50;99.90;15.50;101540.00;;;;5175654;26;85119;-64
2024/04/10 08:53:46;;;;;;;0.85;0.65;;;15.50;99.90;15.70;101536.00;;;;5176588;26;84879;-64
2024/04/10 08:56:15;;;;;;;2.05;1.33;;;15.60;99.90;15.90;101546.00;;;;5176429;26;85651;-63
2024/04/10 08:58:43;;;;;;;1.80;1.08;;;15.80;99.90;16.00;101549.00;;;;5179646;26;85671;-64
2024/04/10 09:01:09;;;;;;;1.58;0.85;;;15.90;99.90;16.00;101558.00;;;;5178299;26;85569;-63
2024/04/10 09:03:36;;;;;;;3.03;1.30;;;16.00;99.90;16.00;101551.00;;;;5177298;26;85366;-64
2024/04/10 09:06:08;;;;;;;1.80;1.02;;;16.00;99.90;15.80;101545.00;;;;5175354;26;99463;-63
2024/04/10 09:08:35;;;;;;;1.73;1.05;;;15.90;99.90;15.60;101564.00;;;;5175652;26;106960;-64
2024/04/10 09:11:00;;;;;;;3.05;0.60;;;15.70;99.90;15.50;101552.00;;;;5173918;26;108655;-64
2024/04/10 09:13:26;;;;;;;1.38;0.82;;;15.60;99.90;15.40;101554.00;;;;5176128;26;116671;-65
2024/04/10 09:15:59;;;;;;;1.98;0.85;;;15.50;99.90;15.40;101555.00;;;;5176573;26;107547;-64
2024/04/10 09:18:26;;;;;;;0.75;0.75;;;15.50;99.90;15.50;101560.00;;;;5177255;27;85690;-65
2024/04/10 09:21:10;;;;;;;1.52;1.05;;;15.50;99.90;15.60;101552.00;;;;5177059;26;85442;-66
2024/04/10 09:23:37;;;;;;;1.85;0.98;;;15.50;99.90;15.60;101556.00;;;;5176846;26;85397;-64
2024/04/10 09:26:06;;;;;;;2.35;0.70;;;15.60;99.90;15.60;101561.00;;;;5176104;26;84740;-64
2024/04/10 09:28:35;;;;;;;4.35;1.25;;;15.60;99.90;15.70;101561.00;;;;5179790;26;83840;-63
2024/04/10 09:31:01;;;;;;;2.63;1.20;;;15.70;99.90;15.80;101564.00;;;;5175494;26;85143;-63
2024/04/10 09:33:34;;;;;;;0.60;0.52;;;15.70;99.10;15.90;101576.00;;;;5176482;26;106061;-64
2024/04/10 09:36:03;;;;;;;1.50;1.08;;;15.80;98.90;16.00;101576.00;;;;5174619;26;85328;-65
2024/04/10 09:38:29;;;;;;;2.17;1.05;;;15.90;97.10;16.20;101577.00;;;;5176910;27;84707;-64
2024/04/10 09:41:05;;;;;;;9.27;1.05;;;16.10;96.50;16.40;101578.00;;;;5176335;26;86397;-64
2024/04/10 09:43:32;;;;;;;3.40;0.80;;;16.20;96.20;16.80;101582.00;;;;5175033;27;85480;-64
2024/04/10 09:46:02;;;;;;;1.42;1.33;;;16.50;96.90;17.00;101581.00;;;;5176750;27;84603;-65
2024/04/10 09:48:34;;;;;;;1.63;1.10;;;16.80;94.80;17.10;101585.00;;;;5173388;27;84500;-63
2024/04/10 09:51:05;;;;;;;2.42;1.45;;;16.90;93.70;17.20;101595.00;;;;5175937;26;85398;-65
2024/04/10 09:53:34;;;;;;;1.60;1.08;;;17.40;93.80;17.40;101589.00;;;;5177326;26;85420;-65
2024/04/10 09:56:10;;;;;;;3.72;1.40;;;17.20;93.70;17.50;101607.00;;;;5176160;27;84574;-64
2024/04/10 09:58:39;;;;;;;0.80;0.63;;;17.30;92.60;17.70;101604.00;;;;5173751;27;106282;-65
2024/04/10 10:01:05;;;;;;;4.05;1.00;;;17.40;92.30;17.70;101615.00;;;;5172010;27;87019;-64
2024/04/10 10:03:32;;;;;;;3.35;1.08;;;17.50;90.90;17.80;101608.00;;;;5178016;26;84579;-64
2024/04/10 10:06:07;;;;;;;5.75;1.23;;;17.60;90.70;18.00;101604.00;;;;5176914;26;100813;-63
2024/04/10 10:08:34;;;;;;;1.65;1.20;;;17.70;91.00;18.10;101608.00;;;;5174598;27;84591;-63
2024/04/10 10:10:59;;;;;;;1.83;1.15;;;17.90;90.40;18.20;101609.00;;;;5176750;27;85694;-63
2024/04/10 10:13:45;;;;;;;2.00;1.00;;;18.00;90.80;18.40;101616.00;;;;5175011;26;117494;-63
2024/04/10 10:16:13;;;;;;;4.03;1.35;;;18.20;90.90;18.70;101621.00;;;;5174488;27;84582;-63
2024/04/10 10:18:39;;;;;;;1.70;1.42;;;18.40;90.10;18.60;101615.00;;;;5173866;27;83873;-63
2024/04/10 10:21:09;;;;;;;3.72;1.17;;;18.40;85.00;18.50;101609.00;;;;5174275;26;103735;-63
2024/04/10 10:23:38;;;;;;;1.33;0.70;;;18.40;84.30;18.40;101617.00;;;;5177174;27;85027;-64
2024/04/10 10:26:05;;;;;;;1.15;1.02;;;18.30;83.00;18.30;101620.00;;;;5173506;26;84977;-64
2024/04/10 10:28:31;;;;;;;1.08;0.68;;;18.20;84.10;18.20;101633.00;;;;5175211;27;85031;-65
2024/04/10 10:31:14;;;;;;;2.97;0.90;;;18.10;84.20;18.10;101627.00;;;;5177592;27;98606;-64
2024/04/10 10:33:43;;;;;;;3.15;1.08;;;18.00;84.10;18.00;101627.00;;;;5176090;27;84323;-65
2024/04/10 10:36:09;;;;;;;3.63;1.00;;;17.90;84.80;17.90;101630.00;;;;5175295;27;84620;-62
2024/04/10 10:38:35;;;;;;;4.32;1.30;;;17.80;84.20;17.80;101646.00;;;;5172050;27;105537;-64
2024/04/10 10:41:09;;;;;;;1.20;0.93;;;17.80;84.30;17.70;101656.00;;;;5177105;26;105582;-65
2024/04/10 10:43:36;;;;;;;4.53;0.90;;;17.60;82.40;17.50;101666.00;;;;5178347;27;84215;-65
2024/04/10 10:46:06;;;;;;;2.58;1.08;;;17.50;80.60;17.40;101667.00;;;;5174499;27;84422;-65
2024/04/10 10:48:32;;;;;;;3.15;1.65;;;17.40;81.00;17.40;101659.00;;;;5179539;27;84356;-65
2024/04/10 10:50:58;;;;;;;1.20;0.80;;;17.40;82.50;17.60;101658.00;;;;5174992;26;86193;-64
2024/04/10 10:53:25;;;;;;;2.47;0.80;;;17.40;83.90;17.90;101662.00;;;;5173572;27;113350;-62